Time,TemperatureF,DewpointF,PressureIn,WindDirection,WindDirectionDegrees,WindSpeedMPH,WindSpeedGustMPH,Humidity,HourlyPrecipIn,Conditions,Clouds,dailyrainin,SoftwareType,DateUTC
2013-02-12 00:02:00,71.0,-99.9,30.22,ENE,58,4.0,10.0,-999,-99.99,,,-99.99,,2013-02-12 10:02:00,
2013-02-12 00:11:00,72.0,-99.9,30.22,NE,48,6.0,13.0,-999,-99.99,,,-99.99,,2013-02-12 10:11:00,
2013-02-12 00:22:00,72.0,-99.9,30.22,NE,55,4.0,11.0,-999,-99.99,,,-99.99,,2013-02-12 10:22:00,
2013-02-12 00:32:00,72.0,-99.9,30.22,NE,53,9.0,17.0,-999,-99.99,,,-99.99,,2013-02-12 10:32:00,
2013-02-12 00:43:00,72.0,-99.9,30.21,ENE,71,5.0,14.0,-999,-99.99,,,-99.99,,2013-02-12 10:43:00,
2013-02-12 00:52:00,72.0,-99.9,30.21,ENE,63,9.0,17.0,-999,-99.99,,,-99.99,,2013-02-12 10:52:00,
2013-02-12 01:02:00,72.0,-99.9,30.21,ENE,71,5.0,12.0,-999,-99.99,,,-99.99,,2013-02-12 11:02:00,
2013-02-12 01:11:00,72.0,-99.9,30.21,NE,54,7.0,12.0,-999,-99.99,,,-99.99,,2013-02-12 11:11:00,
2013-02-12 01:22:00,72.0,-99.9,30.20,NE,51,6.0,10.0,-999,-99.99,,,-99.99,,2013-02-12 11:22:00,
2013-02-12 01:32:00,72.0,-99.9,30.20,ENE,72,3.0,13.0,-999,-99.99,,,-99.99,,2013-02-12 11:32:00,
2013-02-12 01:42:00,71.0,-99.9,30.20,ENE,58,7.0,13.0,-999,-99.99,,,-99.99,,2013-02-12 11:42:00,
2013-02-12 01:53:00,72.0,-99.9,30.20,NE,56,4.0,14.0,-999,-99.99,,,-99.99,,2013-02-12 11:53:00,
2013-02-12 02:02:00,71.0,-99.9,30.20,NE,47,7.0,14.0,-999,-99.99,,,-99.99,,2013-02-12 12:02:00,
2013-02-12 02:11:00,71.0,-99.9,30.19,NE,44,6.0,9.0,-999,-99.99,,,-99.99,,2013-02-12 12:11:00,
2013-02-12 02:22:00,71.0,-99.9,30.19,NE,43,5.0,9.0,-999,-99.99,,,-99.99,,2013-02-12 12:22:00,
2013-02-12 02:32:00,71.0,-99.9,30.19,NE,56,6.0,12.0,-999,-99.99,,,-99.99,,2013-02-12 12:32:00,
2013-02-12 02:42:00,71.0,-99.9,30.19,NE,56,6.0,14.0,-999,-99.99,,,-99.99,,2013-02-12 12:42:00,
2013-02-12 02:53:00,71.0,-99.9,30.19,NE,49,4.0,9.0,-999,-99.99,,,-99.99,,2013-02-12 12:53:00,
2013-02-12 03:02:00,71.0,-99.9,30.18,NE,47,6.0,12.0,-999,-99.99,,,-99.99,,2013-02-12 13:02:00,
2013-02-12 03:11:00,71.0,-99.9,30.18,NE,53,6.0,13.0,-999,-99.99,,,-99.99,,2013-02-12 13:11:00,
2013-02-12 03:22:00,71.0,-99.9,30.18,NE,50,6.0,10.0,-999,-99.99,,,-99.99,,2013-02-12 13:22:00,
2013-02-12 03:32:00,71.0,-99.9,30.18,East,101,3.0,10.0,-999,-99.99,,,-99.99,,2013-02-12 13:32:00,
2013-02-12 03:42:00,71.0,-99.9,30.18,NE,49,4.0,13.0,-999,-99.99,,,-99.99,,2013-02-12 13:42:00,
2013-02-12 03:52:00,71.0,-99.9,30.18,ENE,62,8.0,12.0,-999,-99.99,,,-99.99,,2013-02-12 13:52:00,
2013-02-12 04:01:00,71.0,-99.9,30.18,NE,54,4.0,9.0,-999,-99.99,,,-99.99,,2013-02-12 14:01:00,
2013-02-12 04:12:00,71.0,-99.9,30.18,NE,37,7.0,11.0,-999,-99.99,,,-99.99,,2013-02-12 14:12:00,
2013-02-12 04:22:00,71.0,-99.9,30.18,ENE,69,8.0,14.0,-999,-99.99,,,-99.99,,2013-02-12 14:22:00,
2013-02-12 04:32:00,71.0,-99.9,30.18,ENE,61,9.0,15.0,-999,-99.99,,,-99.99,,2013-02-12 14:32:00,
2013-02-12 04:42:00,71.0,-99.9,30.18,ENE,70,6.0,14.0,-999,-99.99,,,-99.99,,2013-02-12 14:42:00,
2013-02-12 04:52:00,71.0,-99.9,30.18,NE,54,5.0,11.0,-999,-99.99,,,-99.99,,2013-02-12 14:52:00,
2013-02-12 05:02:00,70.0,-99.9,30.18,NE,49,4.0,9.0,-999,-99.99,,,-99.99,,2013-02-12 15:02:00,
2013-02-12 05:11:00,71.0,-99.9,30.18,East,83,3.0,5.0,-999,-99.99,,,-99.99,,2013-02-12 15:11:00,
2013-02-12 05:22:00,71.0,-99.9,30.18,NE,55,7.0,14.0,-999,-99.99,,,-99.99,,2013-02-12 15:22:00,
2013-02-12 05:32:00,70.0,-99.9,30.17,ENE,61,7.0,13.0,-999,-99.99,,,-99.99,,2013-02-12 15:32:00,
2013-02-12 05:42:00,70.0,-99.9,30.17,NE,42,3.0,10.0,-999,-99.99,,,-99.99,,2013-02-12 15:42:00,
2013-02-12 05:52:00,70.0,-99.9,30.17,NE,50,5.0,9.0,-999,-99.99,,,-99.99,,2013-02-12 15:52:00,
2013-02-12 06:02:00,70.0,-99.9,30.17,NE,52,7.0,15.0,-999,-99.99,,,-99.99,,2013-02-12 16:02:00,
2013-02-12 06:11:00,70.0,-99.9,30.17,ENE,57,8.0,12.0,-999,-99.99,,,-99.99,,2013-02-12 16:11:00,
2013-02-12 06:22:00,70.0,-99.9,30.17,NE,55,8.0,15.0,-999,-99.99,,,-99.99,,2013-02-12 16:22:00,
2013-02-12 06:32:00,70.0,-99.9,30.17,NE,45,3.0,9.0,-999,-99.99,,,-99.99,,2013-02-12 16:32:00,
2013-02-12 06:42:00,70.0,-99.9,30.17,NE,47,5.0,10.0,-999,-99.99,,,-99.99,,2013-02-12 16:42:00,
2013-02-12 06:52:00,70.0,-99.9,30.17,NE,50,9.0,12.0,-999,-99.99,,,-99.99,,2013-02-12 16:52:00,
2013-02-12 07:01:00,70.0,-99.9,30.18,ENE,70,5.0,11.0,-999,-99.99,,,-99.99,,2013-02-12 17:01:00,
2013-02-12 07:12:00,70.0,-99.9,30.18,ESE,105,7.0,13.0,-999,-99.99,,,-99.99,,2013-02-12 17:12:00,
2013-02-12 07:21:00,69.0,-99.9,30.19,ENE,57,8.0,13.0,-999,-99.99,,,-99.99,,2013-02-12 17:21:00,
2013-02-12 07:32:00,70.0,-99.9,30.19,East,97,3.0,9.0,-999,-99.99,,,-99.99,,2013-02-12 17:32:00,
2013-02-12 07:42:00,69.0,-99.9,30.19,ESE,122,3.0,4.0,-999,-99.99,,,-99.99,,2013-02-12 17:42:00,
2013-02-12 07:52:00,70.0,-99.9,30.19,ENE,64,5.0,9.0,-999,-99.99,,,-99.99,,2013-02-12 17:52:00,
2013-02-12 08:02:00,70.0,-99.9,30.20,NE,54,5.0,10.0,-999,-99.99,,,-99.99,,2013-02-12 18:02:00,
2013-02-12 08:12:00,71.0,-99.9,30.20,ENE,61,7.0,14.0,-999,-99.99,,,-99.99,,2013-02-12 18:12:00,
2013-02-12 08:23:00,71.0,-99.9,30.20,NE,49,4.0,9.0,-999,-99.99,,,-99.99,,2013-02-12 18:23:00,
2013-02-12 08:32:00,71.0,-99.9,30.20,ENE,74,4.0,8.0,-999,-99.99,,,-99.99,,2013-02-12 18:32:00,
2013-02-12 08:42:00,71.0,-99.9,30.20,ENE,72,8.0,16.0,-999,-99.99,,,-99.99,,2013-02-12 18:42:00,
2013-02-12 08:52:00,71.0,-99.9,30.20,SSE,148,4.0,8.0,-999,-99.99,,,-99.99,,2013-02-12 18:52:00,
2013-02-12 09:02:00,71.0,-99.9,30.20,ENE,65,3.0,6.0,-999,-99.99,,,-99.99,,2013-02-12 19:02:00,
2013-02-12 09:11:00,71.0,-99.9,30.20,East,82,4.0,7.0,-999,-99.99,,,-99.99,,2013-02-12 19:11:00,
2013-02-12 09:21:00,70.0,-99.9,30.20,NNE,27,1.0,3.0,-999,-99.99,,,-99.99,,2013-02-12 19:21:00,
2013-02-12 09:32:00,70.0,-99.9,30.20,West,281,1.0,2.0,-999,-99.99,,,-99.99,,2013-02-12 19:32:00,
2013-02-12 09:42:00,71.0,-99.9,30.20,SSE,147,3.0,6.0,-999,-99.99,,,-99.99,,2013-02-12 19:42:00,
2013-02-12 09:52:00,71.0,-99.9,30.20,SE,135,2.0,6.0,-999,-99.99,,,-99.99,,2013-02-12 19:52:00,
2013-02-12 10:01:00,71.0,-99.9,30.21,SE,141,2.0,4.0,-999,-99.99,,,-99.99,,2013-02-12 20:01:00,
2013-02-12 10:11:00,71.0,-99.9,30.20,SW,225,1.0,3.0,-999,-99.99,,,-99.99,,2013-02-12 20:11:00,
2013-02-12 10:22:00,71.0,-99.9,30.20,East,83,2.0,4.0,-999,-99.99,,,-99.99,,2013-02-12 20:22:00,
2013-02-12 10:32:00,72.0,-99.9,30.21,SE,140,3.0,5.0,-999,-99.99,,,-99.99,,2013-02-12 20:32:00,
2013-02-12 10:42:00,72.0,-99.9,30.21,South,169,2.0,4.0,-999,-99.99,,,-99.99,,2013-02-12 20:42:00,
2013-02-12 10:52:00,72.0,-99.9,30.21,NE,50,6.0,9.0,-999,-99.99,,,-99.99,,2013-02-12 20:52:00,
2013-02-12 11:02:00,73.0,-99.9,30.21,NE,51,8.0,15.0,-999,-99.99,,,-99.99,,2013-02-12 21:02:00,
2013-02-12 11:11:00,73.0,-99.9,30.20,ENE,57,8.0,14.0,-999,-99.99,,,-99.99,,2013-02-12 21:11:00,
2013-02-12 11:21:00,73.0,-99.9,30.20,ENE,57,10.0,18.0,-999,-99.99,,,-99.99,,2013-02-12 21:21:00,
2013-02-12 11:32:00,73.0,-99.9,30.20,ENE,59,6.0,11.0,-999,-99.99,,,-99.99,,2013-02-12 21:32:00,
2013-02-12 11:42:00,73.0,-99.9,30.20,NE,56,8.0,13.0,-999,-99.99,,,-99.99,,2013-02-12 21:42:00,
2013-02-12 11:52:00,73.0,-99.9,30.19,ENE,70,7.0,11.0,-999,-99.99,,,-99.99,,2013-02-12 21:52:00,
2013-02-12 12:02:00,73.0,-99.9,30.19,NE,53,9.0,16.0,-999,-99.99,,,-99.99,,2013-02-12 22:02:00,
2013-02-12 12:12:00,73.0,-99.9,30.19,ENE,59,10.0,19.0,-999,-99.99,,,-99.99,,2013-02-12 22:12:00,
2013-02-12 12:22:00,73.0,-99.9,30.18,NE,54,8.0,16.0,-999,-99.99,,,-99.99,,2013-02-12 22:22:00,
2013-02-12 12:32:00,73.0,-99.9,30.18,ENE,58,6.0,11.0,-999,-99.99,,,-99.99,,2013-02-12 22:32:00,
2013-02-12 12:42:00,73.0,-99.9,30.17,ENE,70,4.0,12.0,-999,-99.99,,,-99.99,,2013-02-12 22:42:00,
2013-02-12 12:52:00,73.0,-99.9,30.17,North,8,5.0,12.0,-999,-99.99,,,-99.99,,2013-02-12 22:52:00,
2013-02-12 13:02:00,74.0,-99.9,30.16,NE,55,5.0,12.0,-999,-99.99,,,-99.99,,2013-02-12 23:02:00,
2013-02-12 13:12:00,74.0,-99.9,30.16,ENE,70,5.0,11.0,-999,-99.99,,,-99.99,,2013-02-12 23:12:00,
2013-02-12 13:22:00,73.0,-99.9,30.16,ENE,65,5.0,13.0,-999,-99.99,,,-99.99,,2013-02-12 23:22:00,
2013-02-12 13:32:00,73.0,-99.9,30.15,ENE,57,6.0,16.0,-999,-99.99,,,-99.99,,2013-02-12 23:32:00,
2013-02-12 13:42:00,74.0,-99.9,30.15,NE,53,6.0,14.0,-999,-99.99,,,-99.99,,2013-02-12 23:42:00,
2013-02-12 13:52:00,74.0,-99.9,30.14,NE,54,8.0,13.0,-999,-99.99,,,-99.99,,2013-02-12 23:52:00,
2013-02-12 14:02:00,73.0,-99.9,30.14,NE,53,7.0,16.0,-999,-99.99,,,-99.99,,2013-02-13 00:02:00,
2013-02-12 14:11:00,73.0,-99.9,30.14,ENE,65,7.0,18.0,-999,-99.99,,,-99.99,,2013-02-13 00:11:00,
2013-02-12 14:22:00,73.0,-99.9,30.14,ENE,59,6.0,13.0,-999,-99.99,,,-99.99,,2013-02-13 00:22:00,
2013-02-12 14:32:00,73.0,-99.9,30.13,North,358,6.0,13.0,-999,-99.99,,,-99.99,,2013-02-13 00:32:00,
2013-02-12 14:42:00,74.0,-99.9,30.13,NE,56,8.0,16.0,-999,-99.99,,,-99.99,,2013-02-13 00:42:00,
2013-02-12 14:52:00,73.0,-99.9,30.13,NE,40,6.0,17.0,-999,-99.99,,,-99.99,,2013-02-13 00:52:00,
2013-02-12 15:01:00,72.0,-99.9,30.13,ENE,63,10.0,18.0,-999,-99.99,,,-99.99,,2013-02-13 01:01:00,
2013-02-12 15:11:00,71.0,-99.9,30.13,NNW,341,4.0,12.0,-999,-99.99,,,-99.99,,2013-02-13 01:11:00,
2013-02-12 15:22:00,72.0,-99.9,30.13,NE,53,6.0,14.0,-999,-99.99,,,-99.99,,2013-02-13 01:22:00,
2013-02-12 15:32:00,73.0,-99.9,30.12,NE,39,7.0,11.0,-999,-99.99,,,-99.99,,2013-02-13 01:32:00,
2013-02-12 15:42:00,73.0,-99.9,30.12,NE,40,9.0,16.0,-999,-99.99,,,-99.99,,2013-02-13 01:42:00,
2013-02-12 15:52:00,73.0,-99.9,30.12,ENE,57,5.0,14.0,-999,-99.99,,,-99.99,,2013-02-13 01:52:00,
2013-02-12 16:01:00,72.0,-99.9,30.12,NNE,29,3.0,8.0,-999,-99.99,,,-99.99,,2013-02-13 02:01:00,
2013-02-12 16:11:00,72.0,-99.9,30.11,NE,39,2.0,6.0,-999,-99.99,,,-99.99,,2013-02-13 02:11:00,
2013-02-12 16:22:00,72.0,-99.9,30.12,ENE,60,6.0,10.0,-999,-99.99,,,-99.99,,2013-02-13 02:22:00,
2013-02-12 16:32:00,72.0,-99.9,30.11,NE,38,6.0,15.0,-999,-99.99,,,-99.99,,2013-02-13 02:32:00,
2013-02-12 16:42:00,72.0,-99.9,30.11,NE,44,7.0,17.0,-999,-99.99,,,-99.99,,2013-02-13 02:42:00,
2013-02-12 16:52:00,72.0,-99.9,30.11,NE,49,8.0,14.0,-999,-99.99,,,-99.99,,2013-02-13 02:52:00,
2013-02-12 17:02:00,72.0,-99.9,30.11,NE,46,6.0,13.0,-999,-99.99,,,-99.99,,2013-02-13 03:02:00,
2013-02-12 17:12:00,73.0,-99.9,30.11,East,84,4.0,12.0,-999,-99.99,,,-99.99,,2013-02-13 03:12:00,
2013-02-12 17:22:00,72.0,-99.9,30.11,ESE,103,6.0,14.0,-999,-99.99,,,-99.99,,2013-02-13 03:22:00,
2013-02-12 17:32:00,72.0,-99.9,30.11,NNE,31,6.0,13.0,-999,-99.99,,,-99.99,,2013-02-13 03:32:00,
2013-02-12 17:42:00,72.0,-99.9,30.12,NE,44,6.0,11.0,-999,-99.99,,,-99.99,,2013-02-13 03:42:00,
2013-02-12 17:52:00,72.0,-99.9,30.12,ENE,58,6.0,13.0,-999,-99.99,,,-99.99,,2013-02-13 03:52:00,
2013-02-12 18:01:00,72.0,-99.9,30.12,NE,40,7.0,16.0,-999,-99.99,,,-99.99,,2013-02-13 04:01:00,
2013-02-12 18:11:00,72.0,-99.9,30.12,ENE,66,8.0,12.0,-999,-99.99,,,-99.99,,2013-02-13 04:11:00,
2013-02-12 18:21:00,72.0,-99.9,30.12,ENE,68,8.0,13.0,-999,-99.99,,,-99.99,,2013-02-13 04:21:00,
2013-02-12 18:32:00,72.0,-99.9,30.13,NE,52,10.0,14.0,-999,-99.99,,,-99.99,,2013-02-13 04:32:00,
2013-02-12 18:42:00,72.0,-99.9,30.13,NE,42,7.0,14.0,-999,-99.99,,,-99.99,,2013-02-13 04:42:00,
2013-02-12 18:52:00,72.0,-99.9,30.13,NE,41,9.0,13.0,-999,-99.99,,,-99.99,,2013-02-13 04:52:00,
2013-02-12 19:02:00,71.0,-99.9,30.13,ENE,67,4.0,13.0,-999,-99.99,,,-99.99,,2013-02-13 05:02:00,
2013-02-12 19:12:00,71.0,-99.9,30.13,ENE,58,6.0,12.0,-999,-99.99,,,-99.99,,2013-02-13 05:12:00,
2013-02-12 19:22:00,71.0,-99.9,30.13,ENE,63,6.0,10.0,-999,-99.99,,,-99.99,,2013-02-13 05:22:00,
2013-02-12 19:32:00,72.0,-99.9,30.13,ENE,61,7.0,13.0,-999,-99.99,,,-99.99,,2013-02-13 05:32:00,
2013-02-12 19:42:00,72.0,-99.9,30.13,ENE,58,4.0,9.0,-999,-99.99,,,-99.99,,2013-02-13 05:42:00,
2013-02-12 19:52:00,72.0,-99.9,30.14,ENE,62,4.0,9.0,-999,-99.99,,,-99.99,,2013-02-13 05:52:00,
2013-02-12 20:02:00,72.0,-99.9,30.14,NE,47,8.0,13.0,-999,-99.99,,,-99.99,,2013-02-13 06:02:00,
2013-02-12 20:12:00,71.0,-99.9,30.14,East,96,2.0,13.0,-999,-99.99,,,-99.99,,2013-02-13 06:12:00,
2013-02-12 20:22:00,72.0,-99.9,30.14,NE,37,5.0,13.0,-999,-99.99,,,-99.99,,2013-02-13 06:22:00,
2013-02-12 20:32:00,71.0,-99.9,30.14,NE,55,6.0,12.0,-999,-99.99,,,-99.99,,2013-02-13 06:32:00,
2013-02-12 20:42:00,71.0,-99.9,30.15,NE,52,6.0,11.0,-999,-99.99,,,-99.99,,2013-02-13 06:42:00,
2013-02-12 20:52:00,71.0,-99.9,30.15,NE,56,7.0,9.0,-999,-99.99,,,-99.99,,2013-02-13 06:52:00,
2013-02-12 21:02:00,71.0,-99.9,30.15,SE,139,2.0,7.0,-999,-99.99,,,-99.99,,2013-02-13 07:02:00,
2013-02-12 21:11:00,71.0,-99.9,30.16,NNE,31,5.0,16.0,-999,-99.99,,,-99.99,,2013-02-13 07:11:00,
2013-02-12 21:22:00,71.0,-99.9,30.16,ENE,71,6.0,13.0,-999,-99.99,,,-99.99,,2013-02-13 07:22:00,
2013-02-12 21:32:00,71.0,-99.9,30.16,NE,46,6.0,11.0,-999,-99.99,,,-99.99,,2013-02-13 07:32:00,
2013-02-12 21:42:00,71.0,-99.9,30.16,NE,47,10.0,15.0,-999,-99.99,,,-99.99,,2013-02-13 07:42:00,
2013-02-12 21:52:00,71.0,-99.9,30.16,NE,46,10.0,16.0,-999,-99.99,,,-99.99,,2013-02-13 07:52:00,
2013-02-12 22:01:00,71.0,-99.9,30.16,NE,40,6.0,9.0,-999,-99.99,,,-99.99,,2013-02-13 08:01:00,
2013-02-12 22:11:00,71.0,-99.9,30.17,NE,53,8.0,13.0,-999,-99.99,,,-99.99,,2013-02-13 08:11:00,
2013-02-12 22:22:00,71.0,-99.9,30.16,NE,53,4.0,6.0,-999,-99.99,,,-99.99,,2013-02-13 08:22:00,
2013-02-12 22:32:00,71.0,-99.9,30.16,NE,49,4.0,7.0,-999,-99.99,,,-99.99,,2013-02-13 08:32:00,
2013-02-12 22:43:00,71.0,-99.9,30.17,ENE,58,4.0,10.0,-999,-99.99,,,-99.99,,2013-02-13 08:43:00,
2013-02-12 22:52:00,71.0,-99.9,30.17,NNE,15,5.0,10.0,-999,-99.99,,,-99.99,,2013-02-13 08:52:00,
2013-02-12 23:02:00,71.0,-99.9,30.17,NE,37,7.0,13.0,-999,-99.99,,,-99.99,,2013-02-13 09:02:00,
2013-02-12 23:11:00,71.0,-99.9,30.17,NE,44,5.0,11.0,-999,-99.99,,,-99.99,,2013-02-13 09:11:00,
2013-02-12 23:21:00,71.0,-99.9,30.16,ENE,61,8.0,14.0,-999,-99.99,,,-99.99,,2013-02-13 09:21:00,
2013-02-12 23:32:00,71.0,-99.9,30.16,NNE,12,0.0,4.0,-999,-99.99,,,-99.99,,2013-02-13 09:32:00,
2013-02-12 23:42:00,70.0,-99.9,30.17,ENE,61,4.0,6.0,-999,-99.99,,,-99.99,,2013-02-13 09:42:00,
2013-02-12 23:52:00,70.0,-99.9,30.16,NE,41,1.0,4.0,-999,-99.99,,,-99.99,,2013-02-13 09:52:00,